Bowdoinham, Maine
Current Conditions -  °F | °C
As of 3:53 PM on Sunday 23 Nov 2014 (Local Time) from KIWI Reporting Station
Clear Clear  
Wind Chill: 44°   Ceiling: Unl
Heat Index: 44°   Visibility: 10mi
Dew Point: 37°   Wind: 0mph
Humidity: 76%   Direction: NA
Pressure: 30.11"   Gusts: NA
Location:  44.01°N, 69.9°W
Report Text: KIWI 232053Z AUTO 00000KT 10SM CLR 07/03 A3011 RMK AO2 SLP197 T00670028 53016
Loading
Personal Weather Stations






























Interactive Weather Map New forecast layout! Learn more

10-Day Weather Forecast

Advertisements
Track Severe Weather on mobile